Time;durP1;ratioP1;P1;durP2;ratioP2;P2;SDS_P1;SDS_P2;PMS_P1;PMS_P2;Temp;Humidity;BMP_temperature;BMP_pressure;BME280_temperature;BME280_humidity;BME280_pressure;Samples;Min_cycle;Max_cycle;Signal;HPM_P1;HPM_P2
2022/07/30 00:02:04;;;;;;;3.58;2.17;;;;;;;16.08;100.00;101651.66;4973097;28;20610;-47
2022/07/30 00:04:31;;;;;;;4.40;1.80;;;;;;;16.22;100.00;101640.16;4972652;28;20261;-48
2022/07/30 00:06:57;;;;;;;4.57;1.83;;;;;;;16.11;100.00;101632.56;4973592;28;20175;-48
2022/07/30 00:09:22;;;;;;;4.55;1.98;;;;;;;16.19;100.00;101637.63;4973308;28;20288;-48
2022/07/30 00:11:48;;;;;;;5.00;2.15;;;;;;;16.07;100.00;101633.72;4973567;28;20705;-49
2022/07/30 00:14:13;;;;;;;6.72;2.15;;;;;;;16.08;100.00;101626.47;4973329;28;20261;-47
2022/07/30 00:16:39;;;;;;;3.65;1.95;;;;;;;16.17;100.00;101629.59;4973109;28;20197;-47
2022/07/30 00:19:04;;;;;;;3.70;1.52;;;;;;;16.20;100.00;101632.16;4972291;28;20173;-47
2022/07/30 00:21:30;;;;;;;6.53;2.13;;;;;;;16.22;100.00;101635.66;4973218;28;20201;-49
2022/07/30 00:23:55;;;;;;;3.42;1.75;;;;;;;16.21;100.00;101636.59;4973088;28;20173;-47
2022/07/30 00:26:21;;;;;;;3.90;1.67;;;;;;;16.32;100.00;101643.31;4972785;28;20658;-47
2022/07/30 00:28:46;;;;;;;3.35;1.50;;;;;;;16.32;100.00;101638.78;4973117;28;20551;-48
2022/07/30 00:31:12;;;;;;;4.72;1.90;;;;;;;16.39;100.00;101642.06;4971522;28;20210;-48
2022/07/30 00:33:37;;;;;;;8.48;2.58;;;;;;;16.32;100.00;101637.91;4971672;28;20174;-47
2022/07/30 00:36:03;;;;;;;2.03;1.60;;;;;;;16.36;100.00;101639.50;4972887;28;20554;-48
2022/07/30 00:38:28;;;;;;;4.97;2.00;;;;;;;16.39;100.00;101644.75;4973096;28;20174;-47
2022/07/30 00:40:54;;;;;;;3.75;1.85;;;;;;;16.22;100.00;101637.47;4972812;28;20269;-46
2022/07/30 00:43:20;;;;;;;5.80;1.95;;;;;;;16.25;100.00;101635.50;4972750;28;20226;-47
2022/07/30 00:45:46;;;;;;;4.43;1.90;;;;;;;16.24;100.00;101635.56;4972809;28;20170;-47
2022/07/30 00:48:15;;;;;;;7.60;2.45;;;;;;;16.29;100.00;101633.53;4972875;28;20190;-45
2022/07/30 00:50:40;;;;;;;6.97;2.20;;;;;;;16.17;100.00;101628.72;4971208;28;20693;-44
2022/07/30 00:53:07;;;;;;;3.83;1.90;;;;;;;16.15;100.00;101636.03;4972866;28;20530;-46
2022/07/30 00:55:33;;;;;;;3.15;1.90;;;;;;;16.15;100.00;101631.47;4972392;28;20257;-46
2022/07/30 00:57:59;;;;;;;4.03;1.70;;;;;;;16.16;100.00;101633.25;4972996;28;20508;-47
2022/07/30 01:00:26;;;;;;;3.70;2.05;;;;;;;16.11;100.00;101629.00;4972375;28;20265;-44
2022/07/30 01:02:51;;;;;;;3.72;1.83;;;;;;;16.11;100.00;101629.00;4972410;28;20184;-45
2022/07/30 01:05:17;;;;;;;4.50;1.80;;;;;;;16.18;100.00;101628.66;4972688;28;20217;-44
2022/07/30 01:07:43;;;;;;;4.15;1.83;;;;;;;16.11;100.00;101629.88;4972342;28;20172;-46
2022/07/30 01:10:11;;;;;;;4.88;1.83;;;;;;;15.98;100.00;101616.09;4970772;28;20642;-46
2022/07/30 01:12:38;;;;;;;2.97;1.83;;;;;;;15.97;100.00;101614.34;4972372;28;20305;-44
2022/07/30 01:15:06;;;;;;;2.83;2.00;;;;;;;16.06;100.00;101615.72;4970355;28;20292;-44
2022/07/30 01:17:33;;;;;;;4.10;1.95;;;;;;;16.08;100.00;101611.13;4972264;28;20215;-44
2022/07/30 01:20:04;;;;;;;1.98;1.60;;;;;;;16.11;100.00;101605.53;4972235;28;20182;-46
2022/07/30 01:23:12;;;;;;;2.08;1.60;;;;;;;16.22;100.00;101607.72;4972192;28;20217;-44
2022/07/30 01:25:53;;;;;;;6.22;1.90;;;;;;;16.26;100.00;101612.03;4972284;28;20233;-43
2022/07/30 01:28:23;;;;;;;4.28;2.20;;;;;;;16.23;100.00;101606.78;4970411;28;20166;-46
2022/07/30 01:30:51;;;;;;;5.13;1.90;;;;;;;16.25;100.00;101605.75;4970900;28;20212;-45
2022/07/30 01:33:18;;;;;;;3.92;1.80;;;;;;;16.22;100.00;101605.03;4970385;28;20170;-44
2022/07/30 01:35:46;;;;;;;4.22;1.80;;;;;;;16.19;100.00;101597.06;4970446;28;20166;-46
2022/07/30 01:38:15;;;;;;;4.22;1.90;;;;;;;16.23;100.00;101594.13;4972040;28;20708;-44
2022/07/30 01:40:43;;;;;;;4.18;1.98;;;;;;;16.30;100.00;101586.59;4970475;28;20225;-45
2022/07/30 01:43:10;;;;;;;3.25;1.95;;;;;;;16.25;100.00;101592.22;4969742;28;20182;-44
2022/07/30 01:45:36;;;;;;;1.85;1.65;;;;;;;16.30;100.00;101583.88;4970430;28;20273;-45
2022/07/30 01:48:06;;;;;;;2.97;1.75;;;;;;;16.26;100.00;101585.00;4971940;28;20661;-44
2022/07/30 01:50:33;;;;;;;4.25;1.80;;;;;;;16.31;100.00;101582.06;4970358;28;20600;-45
2022/07/30 01:52:59;;;;;;;3.78;1.90;;;;;;;16.28;100.00;101583.09;4969768;28;20185;-43
2022/07/30 01:55:38;;;;;;;2.92;1.73;;;;;;;16.38;100.00;101581.69;4978031;28;20177;-43
2022/07/30 01:58:05;;;;;;;2.40;1.95;;;;;;;16.38;100.00;101583.53;4981335;28;20185;-43
2022/07/30 02:00:39;;;;;;;4.28;1.85;;;;;;;16.41;100.00;101578.81;4975047;28;20198;-44
2022/07/30 02:03:07;;;;;;;8.35;2.60;;;;;;;16.34;100.00;101588.19;4971345;28;20170;-44
2022/07/30 02:05:35;;;;;;;4.05;1.73;;;;;;;16.43;100.00;101582.31;4969954;28;20240;-40
2022/07/30 02:08:09;;;;;;;2.67;2.05;;;;;;;16.36;100.00;101580.00;4971274;28;20241;-42
2022/07/30 02:10:42;;;;;;;4.53;2.53;;;;;;;16.34;100.00;101582.78;4969805;28;20218;-41
2022/07/30 02:13:19;;;;;;;3.78;2.28;;;;;;;16.25;100.00;101572.44;4969803;28;20190;-42
2022/07/30 02:15:47;;;;;;;6.32;2.30;;;;;;;16.19;100.00;101580.84;4971493;28;20213;-44
2022/07/30 02:18:26;;;;;;;2.55;1.67;;;;;;;16.27;100.00;101568.69;4971186;28;20597;-44
2022/07/30 02:20:59;;;;;;;2.47;2.17;;;;;;;16.21;100.00;101576.25;4970103;28;20256;-42
2022/07/30 02:23:28;;;;;;;4.05;2.30;;;;;;;16.24;100.00;101576.94;4969862;28;20190;-42
2022/07/30 02:25:57;;;;;;;4.22;1.88;;;;;;;16.18;100.00;101577.28;4970077;28;20185;-44
2022/07/30 02:28:25;;;;;;;4.15;1.67;;;;;;;16.23;100.00;101577.03;4973979;28;20188;-41
2022/07/30 02:30:57;;;;;;;3.90;1.83;;;;;;;16.23;100.00;101577.03;4975110;28;20269;-43
2022/07/30 02:33:29;;;;;;;3.17;2.00;;;;;;;16.23;100.00;101574.34;4973485;28;20220;-43
2022/07/30 02:35:59;;;;;;;4.43;1.80;;;;;;;16.19;100.00;101578.16;4975232;28;20185;-43
2022/07/30 02:38:27;;;;;;;2.80;2.08;;;;;;;16.20;100.00;101580.78;4973496;28;20273;-42
2022/07/30 02:40:56;;;;;;;5.85;2.05;;;;;;;16.22;100.00;101573.47;4975335;28;20210;-43
2022/07/30 02:43:24;;;;;;;4.18;2.10;;;;;;;16.21;100.00;101577.13;4973571;28;20269;-43
2022/07/30 02:45:50;;;;;;;3.88;2.00;;;;;;;16.13;100.00;101576.59;4973247;28;20638;-42
2022/07/30 02:48:20;;;;;;;3.00;2.10;;;;;;;16.10;100.00;101567.78;4973725;28;20182;-43
2022/07/30 02:50:48;;;;;;;5.18;2.22;;;;;;;16.02;100.00;101571.72;4973262;28;20268;-42
2022/07/30 02:53:16;;;;;;;2.38;1.70;;;;;;;16.04;100.00;101572.53;4973457;28;20637;-45
2022/07/30 02:55:44;;;;;;;3.28;2.03;;;;;;;16.11;100.00;101570.41;4974701;28;20179;-44
2022/07/30 02:58:14;;;;;;;4.90;1.90;;;;;;;16.15;100.00;101571.13;4973371;28;20597;-44
2022/07/30 03:00:41;;;;;;;2.63;1.80;;;;;;;16.16;100.00;101568.38;4973527;28;20229;-44
2022/07/30 03:03:08;;;;;;;3.05;1.88;;;;;;;16.10;100.00;101581.31;4973354;28;20284;-44
2022/07/30 03:05:38;;;;;;;4.35;1.73;;;;;;;16.04;100.00;101569.84;4973382;28;20281;-44
2022/07/30 03:08:04;;;;;;;4.25;1.63;;;;;;;16.05;100.00;101563.50;4973150;28;20213;-43
2022/07/30 03:10:32;;;;;;;4.75;1.65;;;;;;;16.06;100.00;101572.47;4972675;28;20283;-45
2022/07/30 03:12:59;;;;;;;2.53;1.60;;;;;;;16.06;100.00;101567.94;4973002;28;20628;-42
2022/07/30 03:15:28;;;;;;;3.92;2.00;;;;;;;16.02;100.00;101576.28;4972819;28;20247;-43
2022/07/30 03:17:56;;;;;;;1.98;1.70;;;;;;;16.08;100.00;101580.50;4974451;28;20197;-43
2022/07/30 03:20:26;;;;;;;3.40;1.73;;;;;;;16.11;100.00;101573.09;4972816;28;20194;-45
2022/07/30 03:22:53;;;;;;;2.50;1.70;;;;;;;16.04;100.00;101575.25;4974399;28;20182;-42
2022/07/30 03:25:23;;;;;;;6.38;1.92;;;;;;;16.01;100.00;101569.13;4973057;28;20325;-44
2022/07/30 03:27:51;;;;;;;2.35;1.80;;;;;;;15.93;100.00;101572.19;4972887;28;20553;-44
2022/07/30 03:30:17;;;;;;;3.63;2.17;;;;;;;16.00;100.00;101565.53;4973777;28;20162;-45
2022/07/30 03:32:44;;;;;;;4.82;2.20;;;;;;;15.97;100.00;101571.09;4974130;28;20173;-46
2022/07/30 03:35:10;;;;;;;3.45;2.38;;;;;;;16.04;100.00;101566.25;4973521;28;20653;-44
2022/07/30 03:37:38;;;;;;;7.03;2.60;;;;;;;15.93;100.00;101572.19;4972464;28;20187;-44
2022/07/30 03:40:05;;;;;;;5.43;2.17;;;;;;;15.98;100.00;101571.97;4972630;28;20185;-45
2022/07/30 03:42:33;;;;;;;4.10;2.35;;;;;;;15.89;100.00;101567.00;4972500;28;20798;-43
2022/07/30 03:45:04;;;;;;;3.50;1.92;;;;;;;15.94;100.00;101581.16;4973919;28;20163;-44
2022/07/30 03:47:32;;;;;;;2.55;1.90;;;;;;;15.99;100.00;101571.91;4972478;28;20337;-46
2022/07/30 03:49:58;;;;;;;4.40;1.90;;;;;;;16.04;100.00;101566.25;4972293;28;20186;-44
2022/07/30 03:52:26;;;;;;;2.78;1.90;;;;;;;16.09;100.00;101563.31;4972244;28;20337;-45
2022/07/30 03:54:55;;;;;;;2.55;2.05;;;;;;;16.13;100.00;101560.38;4972104;28;20248;-48
2022/07/30 03:57:39;;;;;;;3.97;2.33;;;;;;;16.12;100.00;101572.16;4973839;28;20173;-46
2022/07/30 04:00:07;;;;;;;3.45;2.20;;;;;;;16.13;100.00;101570.34;4973753;28;20543;-46
2022/07/30 04:02:45;;;;;;;4.47;2.67;;;;;;;16.05;100.00;101568.03;4973487;28;20204;-47
2022/07/30 04:05:45;;;;;;;4.15;2.22;;;;;;;16.05;100.00;101562.63;4972217;28;20185;-44
2022/07/30 04:08:11;;;;;;;3.20;2.10;;;;;;;16.04;100.00;101567.13;4972252;28;20672;-45
2022/07/30 04:10:37;;;;;;;4.75;2.85;;;;;;;16.05;100.00;101554.50;4988294;28;20209;-43
2022/07/30 04:13:21;;;;;;;4.05;2.80;;;;;;;16.01;100.00;101559.19;4991649;28;20177;-44
2022/07/30 04:16:15;;;;;;;4.22;2.95;;;;;;;15.96;100.00;101557.66;4993064;28;20478;-45
2022/07/30 04:18:49;;;;;;;3.60;2.40;;;;;;;16.03;100.00;101559.13;4991670;28;20169;-46
2022/07/30 04:21:17;;;;;;;2.97;2.05;;;;;;;16.12;100.00;101558.66;4991279;28;20190;-43
2022/07/30 04:23:49;;;;;;;2.47;1.92;;;;;;;16.13;100.00;101556.81;4991626;28;20177;-44
2022/07/30 04:26:16;;;;;;;5.03;2.42;;;;;;;16.15;100.00;101555.78;4993095;28;20197;-44
2022/07/30 04:28:42;;;;;;;3.55;2.45;;;;;;;16.18;100.00;101563.75;4992776;28;20351;-44
2022/07/30 04:31:10;;;;;;;3.92;2.30;;;;;;;16.27;100.00;101563.28;4975219;28;20260;-44
2022/07/30 04:33:36;;;;;;;4.00;2.53;;;;;;;16.30;100.00;101566.78;4991134;28;20267;-46
2022/07/30 04:36:15;;;;;;;4.00;2.30;;;;;;;16.26;100.00;101561.53;4991224;28;20259;-44
2022/07/30 04:38:40;;;;;;;3.33;1.92;;;;;;;16.27;100.00;101557.88;4991302;28;20173;-44
2022/07/30 04:41:06;;;;;;;4.47;2.10;;;;;;;16.33;100.00;101563.94;4990912;28;20202;-47
2022/07/30 04:43:51;;;;;;;4.53;2.40;;;;;;;16.39;100.00;101567.19;4992381;28;20193;-48
2022/07/30 04:46:17;;;;;;;4.38;1.92;;;;;;;16.46;100.00;101562.34;4991158;28;20544;-44
2022/07/30 04:48:44;;;;;;;3.17;2.22;;;;;;;16.48;100.00;101560.44;4989127;28;20173;-48
2022/07/30 04:51:20;;;;;;;3.40;2.10;;;;;;;16.52;100.00;101562.03;4990800;28;20216;-46
2022/07/30 04:53:49;;;;;;;3.55;2.30;;;;;;;16.55;100.00;101561.00;4991418;28;20182;-46
2022/07/30 04:56:18;;;;;;;4.28;2.00;;;;;;;16.65;100.00;101567.69;4975716;28;20173;-45
2022/07/30 04:58:45;;;;;;;2.80;1.90;;;;;;;16.71;100.00;101563.81;4992756;28;20173;-45
2022/07/30 05:01:14;;;;;;;3.08;2.15;;;;;;;16.74;100.00;101569.03;4992418;28;20228;-47
2022/07/30 05:03:42;;;;;;;5.15;2.22;;;;;;;16.76;100.00;101561.72;4990798;28;20227;-49
2022/07/30 05:06:10;;;;;;;5.72;2.40;;;;;;;16.71;100.00;101569.22;4990930;28;20232;-46
2022/07/30 05:08:38;;;;;;;3.88;2.22;;;;;;;16.77;100.00;101566.16;4991308;28;20264;-46
2022/07/30 05:11:11;;;;;;;4.30;1.98;;;;;;;16.78;100.00;101562.53;4943649;28;20236;-49
2022/07/30 05:13:40;;;;;;;3.00;2.15;;;;;;;16.84;100.00;101559.53;4990717;28;20262;-47
2022/07/30 05:16:07;;;;;;;2.70;1.73;;;;;;;16.96;100.00;101566.97;4991181;28;20672;-46
2022/07/30 05:18:34;;;;;;;2.17;1.90;;;;;;;17.10;100.00;101571.69;4991225;28;20201;-45
2022/07/30 05:21:00;;;;;;;3.80;2.40;;;;;;;17.23;100.00;101570.06;4974751;28;20336;-44
2022/07/30 05:23:29;;;;;;;5.32;2.55;;;;;;;17.39;100.00;101567.38;4991010;28;20180;-50
2022/07/30 05:26:04;;;;;;;6.28;2.17;;;;;;;17.56;100.00;101588.13;4990973;28;20199;-46
2022/07/30 05:28:36;;;;;;;5.30;2.30;;;;;;;17.67;100.00;101587.53;4990878;28;20564;-46
2022/07/30 05:31:05;;;;;;;6.95;2.60;;;;;;;17.42;100.00;101578.03;4990668;28;20296;-46
2022/07/30 05:33:30;;;;;;;5.10;1.90;;;;;;;17.27;100.00;101577.06;4990906;28;20205;-44
2022/07/30 05:35:58;;;;;;;5.05;2.30;;;;;;;17.38;100.00;101573.75;4990850;28;20173;-46
2022/07/30 05:38:24;;;;;;;5.10;2.10;;;;;;;17.58;100.00;101578.06;4990820;28;20173;-43
2022/07/30 05:41:09;;;;;;;9.98;2.70;;;;;;;17.66;100.00;101580.34;4990764;28;20285;-44
2022/07/30 05:44:13;;;;;;;6.75;2.50;;;;;;;17.95;100.00;101575.13;4991405;28;20189;-43
2022/07/30 05:46:39;;;;;;;5.35;1.80;;;;;;;17.84;100.00;101581.16;4990719;28;20185;-47
2022/07/30 05:49:05;;;;;;;8.05;2.22;;;;;;;17.86;100.00;101576.53;4990621;28;20205;-47
2022/07/30 05:51:31;;;;;;;2.88;1.40;;;;;;;18.11;100.00;101585.03;4991477;28;20213;-48
2022/07/30 05:53:56;;;;;;;5.10;2.08;;;;;;;18.22;100.00;101578.09;4990734;28;20236;-47
2022/07/30 05:56:44;;;;;;;5.80;2.10;;;;;;;18.27;98.34;101570.56;4990469;28;20201;-47
2022/07/30 05:59:16;;;;;;;3.67;2.03;;;;;;;18.50;97.57;101588.22;4975430;28;20181;-45
2022/07/30 06:02:01;;;;;;;5.50;2.00;;;;;;;18.28;96.62;101581.31;4990733;28;20204;-47
2022/07/30 06:04:36;;;;;;;5.13;1.83;;;;;;;18.51;95.38;101588.09;4990229;28;20184;-45
2022/07/30 06:07:03;;;;;;;4.53;1.40;;;;;;;18.78;95.02;101589.28;4990464;28;20189;-46
2022/07/30 06:09:30;;;;;;;3.75;1.60;;;;;;;19.20;92.53;101577.63;4990288;28;20166;-45
2022/07/30 06:11:56;;;;;;;2.72;1.52;;;;;;;19.59;90.80;101567.03;4991827;28;20275;-48
2022/07/30 06:14:21;;;;;;;7.35;1.58;;;;;;;19.23;89.99;101576.56;4991916;28;20235;-46
2022/07/30 06:16:46;;;;;;;3.70;1.55;;;;;;;19.33;89.58;101565.00;4991598;28;20165;-45
2022/07/30 06:19:14;;;;;;;7.38;2.17;;;;;;;19.75;87.90;101563.25;4990471;28;20182;-47
2022/07/30 06:21:43;;;;;;;3.45;1.52;;;;;;;20.09;86.70;101568.31;4990163;28;20205;-45
2022/07/30 06:24:11;;;;;;;5.53;2.45;;;;;;;20.22;83.83;101568.38;4990427;28;20181;-44
2022/07/30 06:26:43;;;;;;;6.03;2.65;;;;;;;20.45;81.86;101561.38;4990226;28;20284;-47
2022/07/30 06:29:09;;;;;;;3.90;1.88;;;;;;;20.50;82.44;101564.66;4990303;28;20639;-47
2022/07/30 06:31:38;;;;;;;2.80;1.42;;;;;;;20.68;80.89;101566.13;4974139;28;20214;-47
2022/07/30 06:34:04;;;;;;;5.43;1.50;;;;;;;20.88;80.24;101570.22;4990107;28;20200;-45
2022/07/30 06:36:35;;;;;;;7.50;1.75;;;;;;;20.84;78.43;101570.50;4990273;28;20184;-45
2022/07/30 06:39:09;;;;;;;6.38;1.58;;;;;;;20.99;78.73;101570.31;4990296;28;20207;-45
2022/07/30 06:42:06;;;;;;;3.35;1.73;;;;;;;21.23;77.70;101571.41;4978149;28;20684;-47
2022/07/30 06:45:01;;;;;;;4.15;1.60;;;;;;;21.27;75.03;101568.34;4988982;28;20193;-45
2022/07/30 06:47:38;;;;;;;5.53;1.35;;;;;;;21.52;75.30;101563.91;4990118;28;20181;-45
2022/07/30 06:50:04;;;;;;;3.40;1.40;;;;;;;21.62;74.63;101564.94;4991560;28;20259;-45
2022/07/30 06:52:30;;;;;;;4.55;1.67;;;;;;;21.32;73.18;101571.63;4989862;28;20263;-47
2022/07/30 06:54:56;;;;;;;3.03;1.60;;;;;;;21.39;73.75;101563.88;4990853;28;20166;-46
2022/07/30 06:57:37;;;;;;;3.10;1.38;;;;;;;21.84;72.58;101574.28;4988857;28;20244;-47
2022/07/30 07:00:09;;;;;;;4.38;1.40;;;;;;;22.28;71.83;101570.09;4989332;28;20178;-47
2022/07/30 07:02:38;;;;;;;2.78;1.23;;;;;;;22.06;70.23;101562.66;4989651;28;20177;-48
2022/07/30 07:05:10;;;;;;;4.90;1.58;;;;;;;22.16;69.94;101559.09;4989070;28;20177;-47
2022/07/30 07:07:37;;;;;;;3.83;1.55;;;;;;;22.22;68.77;101560.53;4989549;28;20180;-46
2022/07/30 07:10:03;;;;;;;4.38;1.65;;;;;;;21.52;69.96;101561.19;4989208;28;20184;-46
2022/07/30 07:12:44;;;;;;;5.75;2.10;;;;;;;21.48;70.44;101549.59;4992918;28;20188;-44
2022/07/30 07:15:10;;;;;;;6.10;1.65;;;;;;;22.11;69.71;101563.19;4993471;28;20613;-48
2022/07/30 07:17:39;;;;;;;6.13;1.40;;;;;;;22.08;68.50;101558.81;4993443;28;20612;-45
2022/07/30 07:20:05;;;;;;;2.78;1.67;;;;;;;21.95;67.89;101558.00;4994850;28;20189;-47
2022/07/30 07:22:37;;;;;;;7.07;1.70;;;;;;;22.32;69.79;101547.06;4993276;28;20331;-46
2022/07/30 07:25:04;;;;;;;6.07;1.38;;;;;;;22.71;67.49;101550.44;4992491;28;20271;-48
2022/07/30 07:27:32;;;;;;;4.25;1.77;;;;;;;22.38;66.70;101554.78;4992457;28;20196;-47
2022/07/30 07:29:59;;;;;;;5.30;1.60;;;;;;;22.10;67.70;101551.38;4992628;28;20322;-49
2022/07/30 07:32:25;;;;;;;3.40;1.63;;;;;;;21.85;67.38;101549.63;4993001;28;20212;-47
2022/07/30 07:34:50;;;;;;;4.88;1.38;;;;;;;22.07;68.25;101554.34;4994558;28;20614;-48
2022/07/30 07:37:16;;;;;;;3.47;1.30;;;;;;;22.17;66.97;101552.69;4993416;28;20331;-46
2022/07/30 07:39:42;;;;;;;3.28;1.45;;;;;;;22.03;66.68;101544.66;4994444;28;20681;-46
2022/07/30 07:42:08;;;;;;;3.13;1.40;;;;;;;22.06;68.50;101557.19;4993398;28;20192;-47
2022/07/30 07:44:36;;;;;;;3.78;1.50;;;;;;;22.20;67.50;101548.84;4992899;28;20184;-46
2022/07/30 07:47:03;;;;;;;5.47;1.80;;;;;;;22.01;67.39;101541.16;4992926;28;20216;-47
2022/07/30 07:49:33;;;;;;;4.03;1.45;;;;;;;21.78;68.04;101551.94;4992930;28;20622;-44
2022/07/30 07:52:00;;;;;;;4.88;1.50;;;;;;;21.54;68.73;101551.03;4992426;28;20240;-46
2022/07/30 07:54:26;;;;;;;6.32;1.50;;;;;;;21.67;70.04;101543.69;4992974;28;20207;-46
2022/07/30 07:56:55;;;;;;;3.40;1.80;;;;;;;21.65;68.89;101548.38;4994381;28;20177;-44
2022/07/30 07:59:25;;;;;;;4.45;1.40;;;;;;;21.45;69.25;101548.94;4992796;28;20173;-43
2022/07/30 08:01:51;;;;;;;2.80;1.70;;;;;;;21.68;68.10;101544.56;4992755;28;20195;-44
2022/07/30 08:04:45;;;;;;;5.43;1.60;;;;;;;21.87;67.70;101550.38;4992214;28;20558;-49
2022/07/30 08:07:11;;;;;;;3.45;1.70;;;;;;;21.78;67.52;101560.13;4994531;28;20172;-48
2022/07/30 08:09:39;;;;;;;3.03;1.30;;;;;;;21.93;67.09;101555.41;4993620;28;20193;-43
2022/07/30 08:12:20;;;;;;;6.13;1.70;;;;;;;22.11;66.77;101553.13;4992369;28;20217;-47
2022/07/30 08:15:08;;;;;;;3.30;1.50;;;;;;;22.46;65.29;101548.75;4982412;28;20562;-49
2022/07/30 08:17:56;;;;;;;3.95;1.70;;;;;;;22.48;64.89;101555.81;4993604;28;20680;-46
2022/07/30 08:20:35;;;;;;;4.03;1.45;;;;;;;22.97;64.81;101545.66;4992326;28;20196;-46
2022/07/30 08:23:01;;;;;;;3.15;1.63;;;;;;;22.77;64.34;101547.22;4975783;28;20564;-46
2022/07/30 08:25:27;;;;;;;7.90;1.60;;;;;;;23.06;64.13;101538.59;4991239;28;20192;-46
2022/07/30 08:27:52;;;;;;;7.07;1.77;;;;;;;23.30;60.96;101533.03;4993153;28;20189;-44
2022/07/30 08:30:19;;;;;;;3.55;1.60;;;;;;;24.32;60.30;101531.00;4993208;28;20173;-45
2022/07/30 08:32:45;;;;;;;9.00;2.13;;;;;;;23.94;57.31;101530.50;4992044;28;20271;-45
2022/07/30 08:35:11;;;;;;;3.97;1.90;;;;;;;23.82;57.07;101535.13;4992006;28;20706;-46
2022/07/30 08:37:39;;;;;;;2.90;1.40;;;;;;;23.60;58.32;101536.00;4994314;28;20177;-47
2022/07/30 08:40:07;;;;;;;3.83;1.48;;;;;;;23.53;58.99;101532.03;4992383;28;20526;-48
2022/07/30 08:42:34;;;;;;;3.05;1.77;;;;;;;23.24;60.47;101537.13;4992708;28;20232;-44
2022/07/30 08:45:00;;;;;;;7.03;1.77;;;;;;;23.28;59.19;101540.50;4993680;28;20173;-47
2022/07/30 08:47:31;;;;;;;4.22;2.05;;;;;;;23.33;60.94;101540.97;4976473;28;20185;-45
2022/07/30 08:50:10;;;;;;;5.55;1.60;;;;;;;23.02;57.67;101538.88;4991756;28;20223;-46
2022/07/30 08:52:49;;;;;;;3.53;1.50;;;;;;;23.22;58.01;101542.72;4972512;28;20272;-48
2022/07/30 08:55:15;;;;;;;2.85;1.70;;;;;;;23.36;58.54;101538.88;4979813;28;20173;-45
2022/07/30 08:57:42;;;;;;;4.05;1.52;;;;;;;23.37;58.41;101532.41;4979066;28;20193;-47
2022/07/30 09:00:08;;;;;;;3.25;1.70;;;;;;;23.57;58.71;101536.25;4970813;28;20264;-45
2022/07/30 09:02:34;;;;;;;5.10;1.90;;;;;;;23.64;59.59;101536.63;4969799;28;20195;-44
2022/07/30 09:05:02;;;;;;;10.07;1.83;;;;;;;23.46;62.12;101544.44;4980135;28;20225;-42
2022/07/30 09:07:28;;;;;;;4.07;1.75;;;;;;;23.22;59.93;101544.56;4983363;28;20592;-44
2022/07/30 09:09:55;;;;;;;8.88;1.75;;;;;;;23.64;60.40;101547.56;4982604;28;20177;-43
2022/07/30 09:12:31;;;;;;;6.35;1.77;;;;;;;22.97;60.86;101564.78;4990692;28;20201;-44
2022/07/30 09:15:01;;;;;;;6.75;1.85;;;;;;;22.89;63.53;101559.91;4974775;28;20176;-43
2022/07/30 09:17:26;;;;;;;4.40;1.63;;;;;;;22.47;63.05;101570.44;4992020;28;20245;-43
2022/07/30 09:20:03;;;;;;;3.47;1.63;;;;;;;22.84;64.97;101559.41;4990958;28;20265;-43
2022/07/30 09:22:46;;;;;;;4.03;1.65;;;;;;;23.03;65.14;101569.78;4990591;28;20177;-44
2022/07/30 09:25:42;;;;;;;4.80;1.80;;;;;;;23.06;65.07;101565.94;4992566;28;20180;-44
2022/07/30 09:28:29;;;;;;;6.90;1.73;;;;;;;23.44;63.36;101560.16;4991761;28;20235;-45
2022/07/30 09:31:13;;;;;;;9.52;2.30;;;;;;;23.19;65.13;101558.50;4991947;28;20212;-44
2022/07/30 09:33:57;;;;;;;7.18;2.00;;;;;;;22.71;63.47;101566.81;4991671;28;20201;-45
2022/07/30 09:36:41;;;;;;;3.05;1.63;;;;;;;22.57;64.09;101566.03;4991777;28;20283;-43
2022/07/30 09:39:35;;;;;;;6.90;1.70;;;;;;;22.96;64.29;101563.06;4992091;28;20184;-44
2022/07/30 09:42:26;;;;;;;3.20;1.70;;;;;;;23.48;63.90;101552.53;4991463;28;20211;-45
2022/07/30 09:45:09;;;;;;;2.47;1.38;;;;;;;23.78;59.86;101549.19;4990277;28;20636;-42
2022/07/30 09:47:38;;;;;;;7.75;2.22;;;;;;;22.77;64.09;101552.69;4990424;28;20276;-44
2022/07/30 09:50:12;;;;;;;3.63;1.85;;;;;;;22.66;67.70;101566.31;4990333;28;20719;-47
2022/07/30 09:52:41;;;;;;;3.45;1.95;;;;;;;22.62;66.85;101560.22;4990036;28;20746;-46
2022/07/30 09:55:09;;;;;;;4.45;2.35;;;;;;;22.83;65.16;101547.59;4989887;28;20648;-47
2022/07/30 09:57:35;;;;;;;5.55;2.20;;;;;;;22.71;64.23;101550.44;4974050;28;20185;-45
2022/07/30 10:00:20;;;;;;;5.45;2.17;;;;;;;23.57;62.78;101543.56;4990153;28;20272;-45
2022/07/30 10:02:52;;;;;;;8.05;2.15;;;;;;;23.67;61.04;101546.44;4990356;28;20557;-47
2022/07/30 10:05:56;;;;;;;4.03;1.77;;;;;;;24.30;60.13;101543.94;4991205;28;20185;-48
2022/07/30 10:08:41;;;;;;;5.78;2.00;;;;;;;23.78;58.49;101543.72;4990219;28;20180;-48
2022/07/30 10:11:11;;;;;;;4.32;1.80;;;;;;;24.07;61.78;101549.47;4989654;28;20210;-48
2022/07/30 10:13:38;;;;;;;2.72;1.75;;;;;;;24.47;58.74;101548.88;4989722;28;20269;-49
2022/07/30 10:16:05;;;;;;;3.95;1.58;;;;;;;24.35;58.25;101547.16;4989475;28;20207;-48
2022/07/30 10:18:31;;;;;;;2.97;1.73;;;;;;;23.76;60.95;101560.25;4989943;28;20279;-50
2022/07/30 10:21:17;;;;;;;5.55;2.00;;;;;;;23.81;59.59;101557.13;4991267;28;20231;-49
2022/07/30 10:24:02;;;;;;;4.30;1.77;;;;;;;23.96;61.86;101549.53;4990630;28;20636;-48
2022/07/30 10:27:00;;;;;;;5.90;1.90;;;;;;;23.76;60.20;101560.25;4979347;28;20189;-52
2022/07/30 10:29:58;;;;;;;4.15;1.80;;;;;;;23.34;60.87;101543.59;4979100;28;20181;-48
2022/07/30 10:32:25;;;;;;;6.03;1.90;;;;;;;22.96;61.21;101552.97;4991266;28;20612;-49
2022/07/30 10:34:51;;;;;;;6.85;1.95;;;;;;;22.71;62.90;101554.03;4990300;28;20683;-47
2022/07/30 10:37:19;;;;;;;8.90;2.08;;;;;;;22.82;64.62;101564.13;4991205;28;20268;-49
2022/07/30 10:39:52;;;;;;;5.22;2.10;;;;;;;22.68;63.35;101554.28;4991137;28;20185;-52
2022/07/30 10:42:36;;;;;;;4.53;2.20;;;;;;;22.81;64.35;101555.06;4991072;28;20672;-51
2022/07/30 10:45:18;;;;;;;4.10;2.20;;;;;;;22.68;66.73;101562.47;4990679;28;20215;-48
2022/07/30 10:47:48;;;;;;;3.90;1.92;;;;;;;23.16;67.82;101547.81;4992483;28;20217;-48
2022/07/30 10:50:16;;;;;;;4.97;2.22;;;;;;;23.42;65.03;101549.31;4994923;28;20192;-48
2022/07/30 10:53:02;;;;;;;8.13;2.00;;;;;;;23.16;64.06;101539.63;4994657;28;20200;-49
2022/07/30 10:55:33;;;;;;;3.45;1.88;;;;;;;23.49;65.03;101548.81;4994199;28;20283;-48
2022/07/30 10:58:01;;;;;;;4.43;1.92;;;;;;;24.05;62.23;101546.00;4994725;28;20180;-50
2022/07/30 11:00:29;;;;;;;4.85;2.17;;;;;;;23.58;64.21;101537.13;4994699;28;20335;-52
2022/07/30 11:03:10;;;;;;;5.15;2.08;;;;;;;23.81;62.70;101537.97;4994663;28;20177;-49
2022/07/30 11:05:36;;;;;;;7.38;2.35;;;;;;;23.35;67.25;101547.19;4994830;28;20558;-49
2022/07/30 11:08:34;;;;;;;5.03;2.05;;;;;;;23.60;66.60;101538.72;4994585;28;20173;-50
2022/07/30 11:11:00;;;;;;;7.53;2.10;;;;;;;23.85;65.46;101536.72;4994295;28;20225;-49
2022/07/30 11:13:49;;;;;;;2.95;1.67;;;;;;;24.33;61.36;101551.91;4994030;28;20173;-50
2022/07/30 11:16:16;;;;;;;7.72;2.20;;;;;;;24.72;59.86;101544.03;4994173;28;20162;-51
2022/07/30 11:19:08;;;;;;;8.57;1.90;;;;;;;24.49;60.05;101548.75;4994072;28;20172;-48
2022/07/30 11:21:34;;;;;;;5.57;1.55;;;;;;;24.88;57.32;101534.34;4991735;28;20769;-49
2022/07/30 11:24:01;;;;;;;7.57;1.67;;;;;;;24.59;58.16;101545.06;4993714;28;20176;-49
2022/07/30 11:26:38;;;;;;;4.97;1.65;;;;;;;24.44;58.28;101539.00;4994013;28;20723;-49
2022/07/30 11:29:05;;;;;;;2.92;1.70;;;;;;;24.91;57.44;101546.03;4993959;28;20168;-49
2022/07/30 11:31:32;;;;;;;6.55;1.92;;;;;;;24.94;55.60;101543.03;4993787;28;20212;-50
2022/07/30 11:34:19;;;;;;;5.43;1.90;;;;;;;25.11;55.60;101538.78;4990643;28;20247;-49
2022/07/30 11:37:16;;;;;;;7.38;2.00;;;;;;;25.07;53.89;101540.94;4972699;28;20181;-47
2022/07/30 11:39:56;;;;;;;4.10;1.83;;;;;;;25.09;54.88;101545.25;4974623;28;20322;-49
2022/07/30 11:42:25;;;;;;;7.72;2.08;;;;;;;25.09;55.27;101541.66;4974306;28;20715;-48